sensor_id;sensor_type;location;lat;lon;timestamp;pressure;altitude;pressure_sealevel;temperature;humidity
37291;BME280;23175;-33.706;151.094;2023-07-30T00:01:24;100303.31;;;14.23;42.01
37291;BME280;23175;-33.706;151.094;2023-07-30T00:03:59;100302.88;;;13.21;42.21
37291;BME280;23175;-33.706;151.094;2023-07-30T00:06:34;100298.44;;;18.04;35.63
37291;BME280;23175;-33.706;151.094;2023-07-30T00:09:04;100292.83;;;15.65;37.87
37291;BME280;23175;-33.706;151.094;2023-07-30T00:11:34;100294.83;;;14.38;39.24
37291;BME280;23175;-33.706;151.094;2023-07-30T00:14:05;100287.92;;;20.03;32.06
37291;BME280;23175;-33.706;151.094;2023-07-30T00:16:35;100278.54;;;20.21;31.75
37291;BME280;23175;-33.706;151.094;2023-07-30T00:19:05;100274.93;;;20.95;31.09
37291;BME280;23175;-33.706;151.094;2023-07-30T00:21:35;100272.15;;;19.54;33.64
37291;BME280;23175;-33.706;151.094;2023-07-30T00:24:05;100268.90;;;20.71;32.84
37291;BME280;23175;-33.706;151.094;2023-07-30T00:26:41;100266.24;;;19.08;34.57
37291;BME280;23175;-33.706;151.094;2023-07-30T00:29:10;100262.97;;;13.41;41.38
37291;BME280;23175;-33.706;151.094;2023-07-30T00:31:41;100255.30;;;15.66;39.66
37291;BME280;23175;-33.706;151.094;2023-07-30T00:34:11;100257.87;;;17.87;36.61
37291;BME280;23175;-33.706;151.094;2023-07-30T00:36:42;100254.51;;;19.24;35.04
37291;BME280;23175;-33.706;151.094;2023-07-30T00:39:12;100252.05;;;15.62;38.43
37291;BME280;23175;-33.706;151.094;2023-07-30T00:41:42;100248.44;;;16.05;39.46
37291;BME280;23175;-33.706;151.094;2023-07-30T00:44:13;100243.89;;;16.58;37.34
37291;BME280;23175;-33.706;151.094;2023-07-30T00:46:43;100242.93;;;17.93;36.41
37291;BME280;23175;-33.706;151.094;2023-07-30T00:49:14;100236.56;;;18.19;35.23
37291;BME280;23175;-33.706;151.094;2023-07-30T00:51:45;100238.23;;;13.75;40.81
37291;BME280;23175;-33.706;151.094;2023-07-30T00:54:15;100235.93;;;17.78;36.05
37291;BME280;23175;-33.706;151.094;2023-07-30T00:56:50;100227.72;;;18.40;33.93
37291;BME280;23175;-33.706;151.094;2023-07-30T00:59:20;100228.91;;;18.75;33.65
37291;BME280;23175;-33.706;151.094;2023-07-30T01:01:52;100223.30;;;14.41;37.33
37291;BME280;23175;-33.706;151.094;2023-07-30T01:04:23;100218.28;;;16.03;36.03
37291;BME280;23175;-33.706;151.094;2023-07-30T01:06:53;100216.34;;;18.75;33.17
37291;BME280;23175;-33.706;151.094;2023-07-30T01:09:24;100208.40;;;20.49;30.95
37291;BME280;23175;-33.706;151.094;2023-07-30T01:11:55;100204.87;;;20.84;30.89
37291;BME280;23175;-33.706;151.094;2023-07-30T01:14:25;100202.97;;;17.15;33.82
37291;BME280;23175;-33.706;151.094;2023-07-30T01:16:56;100189.24;;;21.57;30.78
37291;BME280;23175;-33.706;151.094;2023-07-30T01:19:26;100185.17;;;20.02;32.31
37291;BME280;23175;-33.706;151.094;2023-07-30T01:21:57;100190.16;;;16.71;35.82
37291;BME280;23175;-33.706;151.094;2023-07-30T01:24:27;100180.07;;;15.75;37.30
37291;BME280;23175;-33.706;151.094;2023-07-30T01:27:01;100174.03;;;18.52;35.47
37291;BME280;23175;-33.706;151.094;2023-07-30T01:29:37;100177.17;;;14.11;40.57
37291;BME280;23175;-33.706;151.094;2023-07-30T01:32:12;100167.02;;;16.26;38.46
37291;BME280;23175;-33.706;151.094;2023-07-30T01:34:43;100159.00;;;17.46;38.12
37291;BME280;23175;-33.706;151.094;2023-07-30T01:37:16;100148.52;;;16.94;38.80
37291;BME280;23175;-33.706;151.094;2023-07-30T01:39:47;100146.25;;;17.11;38.47
37291;BME280;23175;-33.706;151.094;2023-07-30T01:42:22;100158.38;;;15.45;41.27
37291;BME280;23175;-33.706;151.094;2023-07-30T01:44:57;100142.12;;;17.95;37.54
37291;BME280;23175;-33.706;151.094;2023-07-30T01:47:27;100132.13;;;16.40;39.16
37291;BME280;23175;-33.706;151.094;2023-07-30T01:49:58;100121.56;;;16.84;38.50
37291;BME280;23175;-33.706;151.094;2023-07-30T01:52:28;100110.99;;;18.01;36.96
37291;BME280;23175;-33.706;151.094;2023-07-30T01:54:59;100106.75;;;17.85;37.81
37291;BME280;23175;-33.706;151.094;2023-07-30T01:57:34;100105.92;;;16.11;39.73
37291;BME280;23175;-33.706;151.094;2023-07-30T02:00:04;100098.28;;;18.44;36.45
37291;BME280;23175;-33.706;151.094;2023-07-30T02:02:35;100086.80;;;18.24;36.48
37291;BME280;23175;-33.706;151.094;2023-07-30T02:05:06;100075.03;;;15.42;39.83
37291;BME280;23175;-33.706;151.094;2023-07-30T02:07:36;100066.81;;;16.93;37.59
37291;BME280;23175;-33.706;151.094;2023-07-30T02:10:11;100064.46;;;17.07;37.99
37291;BME280;23175;-33.706;151.094;2023-07-30T02:12:41;100058.51;;;16.01;39.57
37291;BME280;23175;-33.706;151.094;2023-07-30T02:15:11;100055.16;;;15.52;39.31
37291;BME280;23175;-33.706;151.094;2023-07-30T02:17:41;100047.12;;;18.41;36.10
37291;BME280;23175;-33.706;151.094;2023-07-30T02:20:12;100039.46;;;18.25;36.50
37291;BME280;23175;-33.706;151.094;2023-07-30T02:22:42;100037.90;;;16.36;38.71
37291;BME280;23175;-33.706;151.094;2023-07-30T02:25:12;100034.41;;;15.95;39.13
37291;BME280;23175;-33.706;151.094;2023-07-30T02:27:43;100033.53;;;18.36;35.78
37291;BME280;23175;-33.706;151.094;2023-07-30T02:30:13;100033.75;;;15.51;38.86
37291;BME280;23175;-33.706;151.094;2023-07-30T02:32:48;100026.93;;;15.22;39.84
37291;BME280;23175;-33.706;151.094;2023-07-30T02:35:18;100016.52;;;16.73;37.72
37291;BME280;23175;-33.706;151.094;2023-07-30T02:37:48;100012.63;;;17.94;37.08
37291;BME280;23175;-33.706;151.094;2023-07-30T02:40:19;100007.34;;;19.54;34.96
37291;BME280;23175;-33.706;151.094;2023-07-30T02:42:50;100000.97;;;17.20;37.25
37291;BME280;23175;-33.706;151.094;2023-07-30T02:45:20;100001.70;;;15.13;39.20
37291;BME280;23175;-33.706;151.094;2023-07-30T02:47:51;99998.10;;;17.39;37.03
37291;BME280;23175;-33.706;151.094;2023-07-30T02:50:21;99983.86;;;16.88;36.79
37291;BME280;23175;-33.706;151.094;2023-07-30T02:52:57;99988.82;;;16.04;38.12
37291;BME280;23175;-33.706;151.094;2023-07-30T02:55:27;99984.01;;;17.95;36.38
37291;BME280;23175;-33.706;151.094;2023-07-30T02:57:57;99987.30;;;15.36;38.83
37291;BME280;23175;-33.706;151.094;2023-07-30T03:00:28;99973.28;;;16.29;37.44
37291;BME280;23175;-33.706;151.094;2023-07-30T03:02:58;99971.48;;;16.52;37.19
37291;BME280;23175;-33.706;151.094;2023-07-30T03:05:33;99966.52;;;16.16;38.11
37291;BME280;23175;-33.706;151.094;2023-07-30T03:08:02;99963.30;;;15.48;39.13
37291;BME280;23175;-33.706;151.094;2023-07-30T03:10:33;99963.53;;;15.11;38.60
37291;BME280;23175;-33.706;151.094;2023-07-30T03:13:02;99957.38;;;15.63;38.91
37291;BME280;23175;-33.706;151.094;2023-07-30T03:15:33;99957.20;;;16.28;38.80
37291;BME280;23175;-33.706;151.094;2023-07-30T03:18:03;99955.40;;;16.11;38.61
37291;BME280;23175;-33.706;151.094;2023-07-30T03:20:34;99952.80;;;16.25;38.28
37291;BME280;23175;-33.706;151.094;2023-07-30T03:23:05;99949.11;;;16.43;38.83
37291;BME280;23175;-33.706;151.094;2023-07-30T03:25:35;99944.40;;;16.26;38.39
37291;BME280;23175;-33.706;151.094;2023-07-30T03:28:06;99939.05;;;17.94;36.02
37291;BME280;23175;-33.706;151.094;2023-07-30T03:30:36;99936.64;;;18.27;35.93
37291;BME280;23175;-33.706;151.094;2023-07-30T03:33:06;99939.15;;;18.98;35.00
37291;BME280;23175;-33.706;151.094;2023-07-30T03:35:36;99934.10;;;16.03;39.12
37291;BME280;23175;-33.706;151.094;2023-07-30T03:38:07;99932.06;;;19.30;34.77
37291;BME280;23175;-33.706;151.094;2023-07-30T03:40:37;99927.27;;;16.40;37.78
37291;BME280;23175;-33.706;151.094;2023-07-30T03:43:07;99926.46;;;16.39;38.92
37291;BME280;23175;-33.706;151.094;2023-07-30T03:45:38;99924.17;;;16.63;39.02
37291;BME280;23175;-33.706;151.094;2023-07-30T03:48:08;99922.38;;;16.91;38.01
37291;BME280;23175;-33.706;151.094;2023-07-30T03:50:38;99915.77;;;16.65;38.23
37291;BME280;23175;-33.706;151.094;2023-07-30T03:53:08;99917.82;;;17.49;36.58
37291;BME280;23175;-33.706;151.094;2023-07-30T03:55:39;99919.70;;;17.12;37.51
37291;BME280;23175;-33.706;151.094;2023-07-30T03:58:09;99917.42;;;17.22;36.72
37291;BME280;23175;-33.706;151.094;2023-07-30T04:00:39;99923.06;;;17.27;37.52
37291;BME280;23175;-33.706;151.094;2023-07-30T04:03:10;99925.86;;;15.85;37.77
37291;BME280;23175;-33.706;151.094;2023-07-30T04:05:40;99920.02;;;16.67;37.22
37291;BME280;23175;-33.706;151.094;2023-07-30T04:08:10;99930.71;;;16.04;37.65
37291;BME280;23175;-33.706;151.094;2023-07-30T04:10:41;99924.36;;;15.68;38.47
37291;BME280;23175;-33.706;151.094;2023-07-30T04:13:10;99917.06;;;17.54;35.50
37291;BME280;23175;-33.706;151.094;2023-07-30T04:15:40;99920.10;;;18.37;35.13
37291;BME280;23175;-33.706;151.094;2023-07-30T04:18:10;99916.51;;;15.99;37.37
37291;BME280;23175;-33.706;151.094;2023-07-30T04:20:41;99910.66;;;15.69;38.20
37291;BME280;23175;-33.706;151.094;2023-07-30T04:23:11;99910.33;;;17.60;36.31
37291;BME280;23175;-33.706;151.094;2023-07-30T04:25:42;99904.43;;;16.85;37.48
37291;BME280;23175;-33.706;151.094;2023-07-30T04:28:11;99905.82;;;16.16;37.92
37291;BME280;23175;-33.706;151.094;2023-07-30T04:30:46;99908.86;;;17.66;36.23
37291;BME280;23175;-33.706;151.094;2023-07-30T04:33:17;99903.62;;;17.91;36.35
37291;BME280;23175;-33.706;151.094;2023-07-30T04:35:47;99899.48;;;19.40;34.16
37291;BME280;23175;-33.706;151.094;2023-07-30T04:38:17;99898.01;;;17.99;36.61
37291;BME280;23175;-33.706;151.094;2023-07-30T04:40:48;99898.44;;;17.37;36.12
37291;BME280;23175;-33.706;151.094;2023-07-30T04:43:17;99888.86;;;15.68;38.01
37291;BME280;23175;-33.706;151.094;2023-07-30T04:45:47;99894.73;;;18.06;35.71
37291;BME280;23175;-33.706;151.094;2023-07-30T04:48:23;99892.51;;;18.45;34.79
37291;BME280;23175;-33.706;151.094;2023-07-30T04:50:53;99894.81;;;18.14;34.13
37291;BME280;23175;-33.706;151.094;2023-07-30T04:53:23;99891.62;;;15.59;37.18
37291;BME280;23175;-33.706;151.094;2023-07-30T04:55:57;99894.15;;;16.73;36.83
37291;BME280;23175;-33.706;151.094;2023-07-30T04:58:32;99899.79;;;16.58;36.16
37291;BME280;23175;-33.706;151.094;2023-07-30T05:01:02;99893.57;;;17.79;35.55
37291;BME280;23175;-33.706;151.094;2023-07-30T05:03:32;99892.34;;;17.28;36.06
37291;BME280;23175;-33.706;151.094;2023-07-30T05:06:03;99891.01;;;18.41;34.66
37291;BME280;23175;-33.706;151.094;2023-07-30T05:08:33;99889.80;;;16.70;37.14
37291;BME280;23175;-33.706;151.094;2023-07-30T05:11:03;99895.20;;;15.79;38.29
37291;BME280;23175;-33.706;151.094;2023-07-30T05:13:34;99888.19;;;17.56;33.69
37291;BME280;23175;-33.706;151.094;2023-07-30T05:16:04;99894.36;;;18.28;32.40
37291;BME280;23175;-33.706;151.094;2023-07-30T05:18:34;99886.73;;;17.80;32.30
37291;BME280;23175;-33.706;151.094;2023-07-30T05:21:05;99890.35;;;17.99;31.51
37291;BME280;23175;-33.706;151.094;2023-07-30T05:23:36;99896.41;;;18.90;30.60
37291;BME280;23175;-33.706;151.094;2023-07-30T05:26:06;99895.31;;;17.06;33.68
37291;BME280;23175;-33.706;151.094;2023-07-30T05:28:36;99902.23;;;18.96;31.12
37291;BME280;23175;-33.706;151.094;2023-07-30T05:31:07;99899.06;;;18.01;32.62
37291;BME280;23175;-33.706;151.094;2023-07-30T05:33:37;99910.15;;;18.67;32.74
37291;BME280;23175;-33.706;151.094;2023-07-30T05:36:08;99905.42;;;16.69;35.48
37291;BME280;23175;-33.706;151.094;2023-07-30T05:38:38;99913.71;;;18.64;33.28
37291;BME280;23175;-33.706;151.094;2023-07-30T05:41:08;99903.10;;;17.17;35.00
37291;BME280;23175;-33.706;151.094;2023-07-30T05:43:39;99904.84;;;17.23;34.99
37291;BME280;23175;-33.706;151.094;2023-07-30T05:46:09;99909.26;;;16.13;35.39
37291;BME280;23175;-33.706;151.094;2023-07-30T05:48:39;99906.90;;;17.41;32.35
37291;BME280;23175;-33.706;151.094;2023-07-30T05:51:10;99907.82;;;16.50;32.89
37291;BME280;23175;-33.706;151.094;2023-07-30T05:53:40;99905.41;;;15.94;33.34
37291;BME280;23175;-33.706;151.094;2023-07-30T05:56:11;99907.39;;;14.81;33.85
37291;BME280;23175;-33.706;151.094;2023-07-30T05:58:46;99911.25;;;17.49;30.46
37291;BME280;23175;-33.706;151.094;2023-07-30T06:01:16;99911.61;;;16.15;32.00
37291;BME280;23175;-33.706;151.094;2023-07-30T06:03:46;99905.38;;;16.70;31.23
37291;BME280;23175;-33.706;151.094;2023-07-30T06:06:16;99906.71;;;16.51;31.49
37291;BME280;23175;-33.706;151.094;2023-07-30T06:08:46;99912.52;;;16.88;30.45
37291;BME280;23175;-33.706;151.094;2023-07-30T06:11:16;99912.96;;;15.92;31.76
37291;BME280;23175;-33.706;151.094;2023-07-30T06:13:47;99910.62;;;17.04;31.51
37291;BME280;23175;-33.706;151.094;2023-07-30T06:16:19;99916.25;;;17.02;30.91
37291;BME280;23175;-33.706;151.094;2023-07-30T06:18:49;99919.60;;;15.98;32.64
37291;BME280;23175;-33.706;151.094;2023-07-30T06:21:20;99921.30;;;15.38;32.44
37291;BME280;23175;-33.706;151.094;2023-07-30T06:23:55;99924.35;;;15.26;32.54
37291;BME280;23175;-33.706;151.094;2023-07-30T06:26:24;99927.06;;;16.57;31.97
37291;BME280;23175;-33.706;151.094;2023-07-30T06:28:59;99928.92;;;15.67;31.72
37291;BME280;23175;-33.706;151.094;2023-07-30T06:31:30;99926.04;;;15.91;31.57
37291;BME280;23175;-33.706;151.094;2023-07-30T06:34:00;99928.40;;;17.28;30.57
37291;BME280;23175;-33.706;151.094;2023-07-30T06:36:30;99926.76;;;16.02;31.70
37291;BME280;23175;-33.706;151.094;2023-07-30T06:39:01;99934.49;;;15.52;31.82
37291;BME280;23175;-33.706;151.094;2023-07-30T06:41:31;99936.42;;;16.26;31.45
37291;BME280;23175;-33.706;151.094;2023-07-30T06:44:02;99937.02;;;17.68;29.89
37291;BME280;23175;-33.706;151.094;2023-07-30T06:46:32;99938.12;;;16.19;30.80
37291;BME280;23175;-33.706;151.094;2023-07-30T06:49:02;99935.43;;;16.70;31.03
37291;BME280;23175;-33.706;151.094;2023-07-30T06:51:33;99938.41;;;17.65;30.51
37291;BME280;23175;-33.706;151.094;2023-07-30T06:54:04;99939.54;;;15.61;31.77
37291;BME280;23175;-33.706;151.094;2023-07-30T06:56:33;99943.08;;;15.73;31.48
37291;BME280;23175;-33.706;151.094;2023-07-30T06:59:04;99943.07;;;16.27;31.09
37291;BME280;23175;-33.706;151.094;2023-07-30T07:01:34;99948.97;;;16.86;30.82
37291;BME280;23175;-33.706;151.094;2023-07-30T07:04:05;99950.48;;;16.16;31.33
37291;BME280;23175;-33.706;151.094;2023-07-30T07:06:35;99957.84;;;15.63;31.48
37291;BME280;23175;-33.706;151.094;2023-07-30T07:09:06;99957.86;;;17.38;29.96
37291;BME280;23175;-33.706;151.094;2023-07-30T07:11:36;99960.61;;;15.07;31.89
37291;BME280;23175;-33.706;151.094;2023-07-30T07:14:12;99965.22;;;16.61;30.62
37291;BME280;23175;-33.706;151.094;2023-07-30T07:16:41;99968.79;;;17.78;29.42
37291;BME280;23175;-33.706;151.094;2023-07-30T07:19:12;99976.16;;;15.87;31.32
37291;BME280;23175;-33.706;151.094;2023-07-30T07:21:41;99973.95;;;15.67;31.20
37291;BME280;23175;-33.706;151.094;2023-07-30T07:24:11;99975.49;;;18.24;29.41
37291;BME280;23175;-33.706;151.094;2023-07-30T07:26:46;99975.08;;;16.33;31.31
37291;BME280;23175;-33.706;151.094;2023-07-30T07:29:16;99975.51;;;14.32;32.23
37291;BME280;23175;-33.706;151.094;2023-07-30T07:31:47;99979.90;;;18.51;29.23
37291;BME280;23175;-33.706;151.094;2023-07-30T07:34:22;99983.15;;;17.58;29.49
37291;BME280;23175;-33.706;151.094;2023-07-30T07:36:52;99989.62;;;18.43;29.20
37291;BME280;23175;-33.706;151.094;2023-07-30T07:39:21;99990.06;;;17.26;30.69
37291;BME280;23175;-33.706;151.094;2023-07-30T07:41:52;99997.96;;;18.82;30.07
37291;BME280;23175;-33.706;151.094;2023-07-30T07:44:21;100000.92;;;16.08;32.80
37291;BME280;23175;-33.706;151.094;2023-07-30T07:46:52;100004.32;;;16.70;31.22
37291;BME280;23175;-33.706;151.094;2023-07-30T07:49:24;100010.13;;;15.48;33.81
37291;BME280;23175;-33.706;151.094;2023-07-30T07:51:54;100009.36;;;17.63;31.08
37291;BME280;23175;-33.706;151.094;2023-07-30T07:54:24;100012.26;;;16.95;31.80
37291;BME280;23175;-33.706;151.094;2023-07-30T07:56:54;100012.76;;;16.65;31.98
37291;BME280;23175;-33.706;151.094;2023-07-30T07:59:25;100016.47;;;14.67;34.71
37291;BME280;23175;-33.706;151.094;2023-07-30T08:02:00;100020.36;;;15.75;33.28
37291;BME280;23175;-33.706;151.094;2023-07-30T08:04:30;100029.17;;;14.07;35.70
37291;BME280;23175;-33.706;151.094;2023-07-30T08:07:00;100029.85;;;17.21;32.19
37291;BME280;23175;-33.706;151.094;2023-07-30T08:09:29;100030.54;;;17.73;31.72
37291;BME280;23175;-33.706;151.094;2023-07-30T08:12:00;100032.29;;;16.10;32.79
37291;BME280;23175;-33.706;151.094;2023-07-30T08:14:31;100036.67;;;16.14;33.04
37291;BME280;23175;-33.706;151.094;2023-07-30T08:17:02;100042.90;;;15.34;33.45
37291;BME280;23175;-33.706;151.094;2023-07-30T08:19:32;100043.55;;;16.19;33.49
37291;BME280;23175;-33.706;151.094;2023-07-30T08:22:02;100049.50;;;16.93;32.85
37291;BME280;23175;-33.706;151.094;2023-07-30T08:24:32;100051.40;;;15.42;34.46
37291;BME280;23175;-33.706;151.094;2023-07-30T08:27:02;100051.32;;;16.21;32.99
37291;BME280;23175;-33.706;151.094;2023-07-30T08:29:32;100058.05;;;15.63;33.84
37291;BME280;23175;-33.706;151.094;2023-07-30T08:32:02;100059.03;;;17.30;32.60
37291;BME280;23175;-33.706;151.094;2023-07-30T08:34:32;100062.22;;;15.20;33.44
37291;BME280;23175;-33.706;151.094;2023-07-30T08:37:02;100068.02;;;14.80;35.08
37291;BME280;23175;-33.706;151.094;2023-07-30T08:39:32;100069.64;;;14.54;35.42
37291;BME280;23175;-33.706;151.094;2023-07-30T08:42:03;100066.32;;;13.09;35.87
37291;BME280;23175;-33.706;151.094;2023-07-30T08:44:33;100066.24;;;15.78;33.76
37291;BME280;23175;-33.706;151.094;2023-07-30T08:47:05;100065.04;;;13.15;36.19
37291;BME280;23175;-33.706;151.094;2023-07-30T08:49:36;100070.83;;;13.31;35.84
37291;BME280;23175;-33.706;151.094;2023-07-30T08:52:09;100071.06;;;13.64;35.11
37291;BME280;23175;-33.706;151.094;2023-07-30T08:54:40;100073.76;;;15.84;33.05
37291;BME280;23175;-33.706;151.094;2023-07-30T08:57:11;100076.89;;;14.67;33.68
37291;BME280;23175;-33.706;151.094;2023-07-30T08:59:45;100080.65;;;15.05;33.16
37291;BME280;23175;-33.706;151.094;2023-07-30T09:02:21;100087.67;;;14.75;34.17
37291;BME280;23175;-33.706;151.094;2023-07-30T09:04:56;100090.48;;;14.49;34.52
37291;BME280;23175;-33.706;151.094;2023-07-30T09:07:27;100099.47;;;13.62;35.79
37291;BME280;23175;-33.706;151.094;2023-07-30T09:09:57;100097.33;;;14.36;35.17
37291;BME280;23175;-33.706;151.094;2023-07-30T09:12:30;100095.77;;;12.63;36.83
37291;BME280;23175;-33.706;151.094;2023-07-30T09:15:00;100098.61;;;13.78;35.99
37291;BME280;23175;-33.706;151.094;2023-07-30T09:17:31;100098.30;;;14.33;35.81
37291;BME280;23175;-33.706;151.094;2023-07-30T09:20:02;100105.05;;;13.84;36.93
37291;BME280;23175;-33.706;151.094;2023-07-30T09:22:33;100101.56;;;15.28;34.98
37291;BME280;23175;-33.706;151.094;2023-07-30T09:25:05;100105.61;;;13.53;37.31
37291;BME280;23175;-33.706;151.094;2023-07-30T09:27:35;100110.56;;;14.07;37.44
37291;BME280;23175;-33.706;151.094;2023-07-30T09:30:07;100112.26;;;14.46;36.84
37291;BME280;23175;-33.706;151.094;2023-07-30T09:32:37;100119.44;;;15.82;34.96
37291;BME280;23175;-33.706;151.094;2023-07-30T09:35:07;100124.44;;;15.81;35.68
37291;BME280;23175;-33.706;151.094;2023-07-30T09:37:40;100122.37;;;13.79;37.20
37291;BME280;23175;-33.706;151.094;2023-07-30T09:40:14;100126.71;;;13.68;36.80
37291;BME280;23175;-33.706;151.094;2023-07-30T09:42:45;100129.55;;;13.23;38.20
37291;BME280;23175;-33.706;151.094;2023-07-30T09:45:21;100134.08;;;15.28;36.16
37291;BME280;23175;-33.706;151.094;2023-07-30T09:47:51;100135.11;;;15.78;35.66
37291;BME280;23175;-33.706;151.094;2023-07-30T09:50:24;100137.96;;;13.38;38.37
37291;BME280;23175;-33.706;151.094;2023-07-30T09:52:55;100142.29;;;14.54;37.38
37291;BME280;23175;-33.706;151.094;2023-07-30T09:55:25;100146.16;;;14.74;36.98
37291;BME280;23175;-33.706;151.094;2023-07-30T09:57:55;100148.28;;;14.12;37.24
37291;BME280;23175;-33.706;151.094;2023-07-30T10:00:26;100151.83;;;15.48;36.77
37291;BME280;23175;-33.706;151.094;2023-07-30T10:03:03;100151.13;;;16.73;35.08
37291;BME280;23175;-33.706;151.094;2023-07-30T10:05:34;100157.76;;;17.02;34.84
37291;BME280;23175;-33.706;151.094;2023-07-30T10:08:09;100163.31;;;17.31;34.53
37291;BME280;23175;-33.706;151.094;2023-07-30T10:10:40;100169.22;;;14.45;37.83
37291;BME280;23175;-33.706;151.094;2023-07-30T10:13:17;100173.86;;;15.18;37.06
37291;BME280;23175;-33.706;151.094;2023-07-30T10:15:48;100180.07;;;14.53;38.09
37291;BME280;23175;-33.706;151.094;2023-07-30T10:18:18;100181.16;;;16.26;36.28
37291;BME280;23175;-33.706;151.094;2023-07-30T10:20:54;100181.84;;;15.46;37.28
37291;BME280;23175;-33.706;151.094;2023-07-30T10:23:29;100184.28;;;14.14;39.18
37291;BME280;23175;-33.706;151.094;2023-07-30T10:26:10;100183.39;;;15.33;38.01
37291;BME280;23175;-33.706;151.094;2023-07-30T10:28:40;100186.93;;;15.67;37.20
37291;BME280;23175;-33.706;151.094;2023-07-30T10:31:10;100192.22;;;13.47;38.55
37291;BME280;23175;-33.706;151.094;2023-07-30T10:33:51;100196.00;;;16.48;35.96
37291;BME280;23175;-33.706;151.094;2023-07-30T10:36:33;100197.26;;;16.14;36.73
37291;BME280;23175;-33.706;151.094;2023-07-30T10:39:13;100193.15;;;14.55;38.78
37291;BME280;23175;-33.706;151.094;2023-07-30T10:41:44;100192.99;;;14.03;39.83
37291;BME280;23175;-33.706;151.094;2023-07-30T10:44:26;100196.28;;;13.47;40.10
37291;BME280;23175;-33.706;151.094;2023-07-30T10:46:58;100197.05;;;14.04;39.28
37291;BME280;23175;-33.706;151.094;2023-07-30T10:49:28;100197.72;;;12.96;41.09
37291;BME280;23175;-33.706;151.094;2023-07-30T10:52:00;100203.12;;;16.51;36.87
37291;BME280;23175;-33.706;151.094;2023-07-30T10:54:35;100207.97;;;16.34;36.42
37291;BME280;23175;-33.706;151.094;2023-07-30T10:57:05;100209.63;;;15.39;37.78
37291;BME280;23175;-33.706;151.094;2023-07-30T10:59:36;100211.23;;;14.38;38.83
37291;BME280;23175;-33.706;151.094;2023-07-30T11:02:07;100209.33;;;16.15;37.04
37291;BME280;23175;-33.706;151.094;2023-07-30T11:04:37;100214.79;;;16.44;37.06
37291;BME280;23175;-33.706;151.094;2023-07-30T11:07:07;100219.02;;;16.67;36.26
37291;BME280;23175;-33.706;151.094;2023-07-30T11:09:37;100220.85;;;14.77;37.92
37291;BME280;23175;-33.706;151.094;2023-07-30T11:12:10;100225.11;;;14.30;38.50
37291;BME280;23175;-33.706;151.094;2023-07-30T11:14:40;100224.69;;;13.75;39.55
37291;BME280;23175;-33.706;151.094;2023-07-30T11:17:10;100225.12;;;13.73;39.78
37291;BME280;23175;-33.706;151.094;2023-07-30T11:19:44;100226.18;;;15.65;37.29
37291;BME280;23175;-33.706;151.094;2023-07-30T11:22:14;100225.40;;;16.22;36.72
37291;BME280;23175;-33.706;151.094;2023-07-30T11:24:44;100224.56;;;13.72;39.98
37291;BME280;23175;-33.706;151.094;2023-07-30T11:27:13;100230.50;;;15.80;37.27
37291;BME280;23175;-33.706;151.094;2023-07-30T11:29:55;100230.69;;;16.87;35.71
37291;BME280;23175;-33.706;151.094;2023-07-30T11:32:26;100233.48;;;12.77;40.88
37291;BME280;23175;-33.706;151.094;2023-07-30T11:34:57;100232.57;;;13.82;39.28
37291;BME280;23175;-33.706;151.094;2023-07-30T11:37:27;100230.62;;;15.11;37.58
37291;BME280;23175;-33.706;151.094;2023-07-30T11:39:56;100238.80;;;12.69;41.44
37291;BME280;23175;-33.706;151.094;2023-07-30T11:42:27;100240.89;;;13.94;39.03
37291;BME280;23175;-33.706;151.094;2023-07-30T11:44:57;100242.97;;;16.58;36.33
37291;BME280;23175;-33.706;151.094;2023-07-30T11:47:27;100245.75;;;16.74;35.38
37291;BME280;23175;-33.706;151.094;2023-07-30T11:49:58;100244.62;;;16.13;36.23
37291;BME280;23175;-33.706;151.094;2023-07-30T11:52:29;100241.50;;;13.33;39.78
37291;BME280;23175;-33.706;151.094;2023-07-30T11:55:03;100237.10;;;14.49;37.97
37291;BME280;23175;-33.706;151.094;2023-07-30T11:57:37;100239.24;;;14.06;38.29
37291;BME280;23175;-33.706;151.094;2023-07-30T12:00:09;100240.64;;;14.30;38.69
37291;BME280;23175;-33.706;151.094;2023-07-30T12:02:40;100231.96;;;12.32;40.71
37291;BME280;23175;-33.706;151.094;2023-07-30T12:05:12;100227.69;;;12.99;39.19
37291;BME280;23175;-33.706;151.094;2023-07-30T12:07:49;100228.02;;;13.55;38.47
37291;BME280;23175;-33.706;151.094;2023-07-30T12:10:19;100230.09;;;11.97;40.39
37291;BME280;23175;-33.706;151.094;2023-07-30T12:12:52;100233.88;;;12.42;40.26
37291;BME280;23175;-33.706;151.094;2023-07-30T12:15:27;100236.06;;;12.26;39.91
37291;BME280;23175;-33.706;151.094;2023-07-30T12:17:58;100231.92;;;15.46;36.85
37291;BME280;23175;-33.706;151.094;2023-07-30T12:20:29;100231.86;;;15.40;36.17
37291;BME280;23175;-33.706;151.094;2023-07-30T12:23:00;100231.59;;;12.06;39.46
37291;BME280;23175;-33.706;151.094;2023-07-30T12:25:31;100231.05;;;16.95;34.46
37291;BME280;23175;-33.706;151.094;2023-07-30T12:28:01;100232.21;;;16.18;35.79
37291;BME280;23175;-33.706;151.094;2023-07-30T12:30:32;100232.94;;;16.63;35.50
37291;BME280;23175;-33.706;151.094;2023-07-30T12:33:07;100237.87;;;15.89;36.21
37291;BME280;23175;-33.706;151.094;2023-07-30T12:35:38;100239.07;;;14.56;37.44
37291;BME280;23175;-33.706;151.094;2023-07-30T12:38:07;100239.99;;;13.03;38.96
37291;BME280;23175;-33.706;151.094;2023-07-30T12:40:37;100239.17;;;14.63;37.83
37291;BME280;23175;-33.706;151.094;2023-07-30T12:43:07;100235.55;;;11.50;40.55